sensor_id;sensor_type;location;lat;lon;timestamp;P1;durP1;ratioP1;P2;durP2;ratioP2
2031;SDS011;27625;50.422;7.944;2022-11-15T00:02:38;26.03;;;19.23;;
2031;SDS011;27625;50.422;7.944;2022-11-15T00:05:05;25.40;;;19.60;;
2031;SDS011;27625;50.422;7.944;2022-11-15T00:07:32;26.90;;;20.23;;
2031;SDS011;27625;50.422;7.944;2022-11-15T00:09:59;28.10;;;20.03;;
2031;SDS011;27625;50.422;7.944;2022-11-15T00:12:26;27.97;;;20.80;;
2031;SDS011;27625;50.422;7.944;2022-11-15T00:14:53;27.17;;;19.60;;
2031;SDS011;27625;50.422;7.944;2022-11-15T00:17:20;30.37;;;22.13;;
2031;SDS011;27625;50.422;7.944;2022-11-15T00:19:48;31.90;;;20.53;;
2031;SDS011;27625;50.422;7.944;2022-11-15T00:22:15;27.03;;;21.00;;
2031;SDS011;27625;50.422;7.944;2022-11-15T00:24:42;30.73;;;20.40;;
2031;SDS011;27625;50.422;7.944;2022-11-15T00:27:09;29.27;;;22.00;;
2031;SDS011;27625;50.422;7.944;2022-11-15T00:29:36;29.80;;;21.53;;
2031;SDS011;27625;50.422;7.944;2022-11-15T00:32:03;29.00;;;21.07;;
2031;SDS011;27625;50.422;7.944;2022-11-15T00:34:31;30.80;;;23.00;;
2031;SDS011;27625;50.422;7.944;2022-11-15T00:36:59;26.60;;;21.17;;
2031;SDS011;27625;50.422;7.944;2022-11-15T00:39:25;36.13;;;23.97;;
2031;SDS011;27625;50.422;7.944;2022-11-15T00:41:52;26.23;;;21.00;;
2031;SDS011;27625;50.422;7.944;2022-11-15T00:44:19;31.37;;;21.63;;
2031;SDS011;27625;50.422;7.944;2022-11-15T00:46:46;31.67;;;23.20;;
2031;SDS011;27625;50.422;7.944;2022-11-15T00:49:13;32.03;;;21.83;;
2031;SDS011;27625;50.422;7.944;2022-11-15T00:51:40;31.87;;;21.90;;
2031;SDS011;27625;50.422;7.944;2022-11-15T00:54:08;31.43;;;22.57;;
2031;SDS011;27625;50.422;7.944;2022-11-15T00:56:35;27.20;;;21.40;;
2031;SDS011;27625;50.422;7.944;2022-11-15T00:59:02;32.60;;;23.77;;
2031;SDS011;27625;50.422;7.944;2022-11-15T01:01:28;29.90;;;22.87;;
2031;SDS011;27625;50.422;7.944;2022-11-15T01:03:55;29.60;;;22.73;;
2031;SDS011;27625;50.422;7.944;2022-11-15T01:06:22;32.93;;;23.60;;
2031;SDS011;27625;50.422;7.944;2022-11-15T01:08:49;30.63;;;23.73;;
2031;SDS011;27625;50.422;7.944;2022-11-15T01:11:17;32.70;;;23.80;;
2031;SDS011;27625;50.422;7.944;2022-11-15T01:13:44;27.23;;;21.80;;
2031;SDS011;27625;50.422;7.944;2022-11-15T01:16:12;28.43;;;21.27;;
2031;SDS011;27625;50.422;7.944;2022-11-15T01:18:42;33.47;;;21.60;;
2031;SDS011;27625;50.422;7.944;2022-11-15T01:21:10;27.30;;;21.50;;
2031;SDS011;27625;50.422;7.944;2022-11-15T01:23:38;29.57;;;20.10;;
2031;SDS011;27625;50.422;7.944;2022-11-15T01:26:06;26.43;;;21.13;;
2031;SDS011;27625;50.422;7.944;2022-11-15T01:28:36;26.77;;;20.23;;
2031;SDS011;27625;50.422;7.944;2022-11-15T01:31:05;25.93;;;19.57;;
2031;SDS011;27625;50.422;7.944;2022-11-15T01:33:35;28.70;;;21.60;;
2031;SDS011;27625;50.422;7.944;2022-11-15T01:36:03;25.63;;;19.37;;
2031;SDS011;27625;50.422;7.944;2022-11-15T01:38:30;25.50;;;19.73;;
2031;SDS011;27625;50.422;7.944;2022-11-15T01:40:57;27.50;;;20.80;;
2031;SDS011;27625;50.422;7.944;2022-11-15T01:43:25;25.80;;;20.13;;
2031;SDS011;27625;50.422;7.944;2022-11-15T01:45:55;26.40;;;19.30;;
2031;SDS011;27625;50.422;7.944;2022-11-15T01:48:24;25.93;;;20.53;;
2031;SDS011;27625;50.422;7.944;2022-11-15T01:50:52;29.47;;;20.87;;
2031;SDS011;27625;50.422;7.944;2022-11-15T01:53:19;24.77;;;19.67;;
2031;SDS011;27625;50.422;7.944;2022-11-15T01:55:48;26.87;;;19.70;;
2031;SDS011;27625;50.422;7.944;2022-11-15T01:58:15;25.30;;;18.90;;
2031;SDS011;27625;50.422;7.944;2022-11-15T02:00:41;23.37;;;17.87;;
2031;SDS011;27625;50.422;7.944;2022-11-15T02:03:10;24.13;;;18.00;;
2031;SDS011;27625;50.422;7.944;2022-11-15T02:05:37;25.97;;;19.20;;
2031;SDS011;27625;50.422;7.944;2022-11-15T02:08:04;25.37;;;18.50;;
2031;SDS011;27625;50.422;7.944;2022-11-15T02:10:31;23.20;;;18.87;;
2031;SDS011;27625;50.422;7.944;2022-11-15T02:12:58;28.63;;;19.47;;
2031;SDS011;27625;50.422;7.944;2022-11-15T02:15:27;29.97;;;21.30;;
2031;SDS011;27625;50.422;7.944;2022-11-15T02:18:07;31.07;;;20.13;;
2031;SDS011;27625;50.422;7.944;2022-11-15T02:20:45;25.67;;;20.07;;
2031;SDS011;27625;50.422;7.944;2022-11-15T02:26:25;27.67;;;19.17;;
2031;SDS011;27625;50.422;7.944;2022-11-15T02:29:08;28.30;;;20.10;;
2031;SDS011;27625;50.422;7.944;2022-11-15T02:31:41;30.70;;;22.17;;
2031;SDS011;27625;50.422;7.944;2022-11-15T02:34:15;28.37;;;20.57;;
2031;SDS011;27625;50.422;7.944;2022-11-15T02:36:46;28.47;;;20.13;;
2031;SDS011;27625;50.422;7.944;2022-11-15T02:39:19;29.37;;;20.83;;
2031;SDS011;27625;50.422;7.944;2022-11-15T02:41:51;27.50;;;19.20;;
2031;SDS011;27625;50.422;7.944;2022-11-15T02:44:22;25.33;;;19.87;;
2031;SDS011;27625;50.422;7.944;2022-11-15T02:46:51;26.00;;;18.50;;
2031;SDS011;27625;50.422;7.944;2022-11-15T02:49:37;22.67;;;17.30;;
2031;SDS011;27625;50.422;7.944;2022-11-15T02:52:06;25.47;;;17.97;;
2031;SDS011;27625;50.422;7.944;2022-11-15T02:54:34;21.50;;;16.37;;
2031;SDS011;27625;50.422;7.944;2022-11-15T02:57:01;26.57;;;18.80;;
2031;SDS011;27625;50.422;7.944;2022-11-15T02:59:34;26.23;;;18.67;;
2031;SDS011;27625;50.422;7.944;2022-11-15T03:02:25;29.93;;;18.67;;
2031;SDS011;27625;50.422;7.944;2022-11-15T03:04:58;28.30;;;18.73;;
2031;SDS011;27625;50.422;7.944;2022-11-15T03:07:30;28.40;;;20.20;;
2031;SDS011;27625;50.422;7.944;2022-11-15T03:10:01;28.97;;;20.50;;
2031;SDS011;27625;50.422;7.944;2022-11-15T03:12:34;26.20;;;20.00;;
2031;SDS011;27625;50.422;7.944;2022-11-15T03:15:05;30.27;;;21.10;;
2031;SDS011;27625;50.422;7.944;2022-11-15T03:17:35;30.40;;;19.50;;
2031;SDS011;27625;50.422;7.944;2022-11-15T03:20:04;27.40;;;19.53;;
2031;SDS011;27625;50.422;7.944;2022-11-15T03:22:33;25.67;;;19.67;;
2031;SDS011;27625;50.422;7.944;2022-11-15T03:25:02;27.70;;;20.57;;
2031;SDS011;27625;50.422;7.944;2022-11-15T03:27:34;25.40;;;18.47;;
2031;SDS011;27625;50.422;7.944;2022-11-15T03:30:05;23.93;;;17.40;;
2031;SDS011;27625;50.422;7.944;2022-11-15T03:32:35;25.10;;;18.10;;
2031;SDS011;27625;50.422;7.944;2022-11-15T03:35:04;26.57;;;19.27;;
2031;SDS011;27625;50.422;7.944;2022-11-15T03:37:35;24.87;;;18.40;;
2031;SDS011;27625;50.422;7.944;2022-11-15T03:40:04;27.00;;;18.17;;
2031;SDS011;27625;50.422;7.944;2022-11-15T03:42:32;22.50;;;17.90;;
2031;SDS011;27625;50.422;7.944;2022-11-15T03:45:06;18.20;;;13.90;;
2031;SDS011;27625;50.422;7.944;2022-11-15T03:47:38;17.80;;;13.20;;
2031;SDS011;27625;50.422;7.944;2022-11-15T03:50:07;17.90;;;14.00;;
2031;SDS011;27625;50.422;7.944;2022-11-15T03:52:36;23.00;;;15.50;;
2031;SDS011;27625;50.422;7.944;2022-11-15T03:55:03;20.67;;;15.50;;
2031;SDS011;27625;50.422;7.944;2022-11-15T03:57:32;20.63;;;16.33;;
2031;SDS011;27625;50.422;7.944;2022-11-15T03:59:58;21.60;;;16.40;;
2031;SDS011;27625;50.422;7.944;2022-11-15T04:02:25;21.43;;;16.27;;
2031;SDS011;27625;50.422;7.944;2022-11-15T04:04:54;23.10;;;17.70;;
2031;SDS011;27625;50.422;7.944;2022-11-15T04:07:21;25.97;;;17.63;;
2031;SDS011;27625;50.422;7.944;2022-11-15T04:09:48;24.07;;;16.37;;
2031;SDS011;27625;50.422;7.944;2022-11-15T04:12:31;22.83;;;16.57;;
2031;SDS011;27625;50.422;7.944;2022-11-15T04:14:59;22.73;;;17.30;;
2031;SDS011;27625;50.422;7.944;2022-11-15T04:17:36;20.50;;;16.50;;
2031;SDS011;27625;50.422;7.944;2022-11-15T04:20:06;20.63;;;16.00;;
2031;SDS011;27625;50.422;7.944;2022-11-15T04:22:52;26.93;;;17.27;;
2031;SDS011;27625;50.422;7.944;2022-11-15T04:25:49;20.47;;;16.80;;
2031;SDS011;27625;50.422;7.944;2022-11-15T04:28:17;20.30;;;16.43;;
2031;SDS011;27625;50.422;7.944;2022-11-15T04:30:44;25.70;;;17.40;;
2031;SDS011;27625;50.422;7.944;2022-11-15T04:33:10;21.83;;;16.13;;
2031;SDS011;27625;50.422;7.944;2022-11-15T04:35:39;23.60;;;16.47;;
2031;SDS011;27625;50.422;7.944;2022-11-15T04:38:07;21.60;;;14.80;;
2031;SDS011;27625;50.422;7.944;2022-11-15T04:40:34;19.57;;;15.67;;
2031;SDS011;27625;50.422;7.944;2022-11-15T04:43:01;20.30;;;15.80;;
2031;SDS011;27625;50.422;7.944;2022-11-15T04:45:27;21.50;;;17.17;;
2031;SDS011;27625;50.422;7.944;2022-11-15T04:47:54;16.80;;;14.60;;
2031;SDS011;27625;50.422;7.944;2022-11-15T04:50:21;18.63;;;14.93;;
2031;SDS011;27625;50.422;7.944;2022-11-15T04:52:51;18.80;;;14.73;;
2031;SDS011;27625;50.422;7.944;2022-11-15T04:55:19;18.00;;;13.50;;
2031;SDS011;27625;50.422;7.944;2022-11-15T04:57:46;15.33;;;12.33;;
2031;SDS011;27625;50.422;7.944;2022-11-15T05:00:15;13.67;;;11.50;;
2031;SDS011;27625;50.422;7.944;2022-11-15T05:02:42;14.10;;;11.10;;
2031;SDS011;27625;50.422;7.944;2022-11-15T05:05:27;14.30;;;10.50;;
2031;SDS011;27625;50.422;7.944;2022-11-15T05:07:55;11.90;;;10.27;;
2031;SDS011;27625;50.422;7.944;2022-11-15T05:10:22;15.93;;;12.43;;
2031;SDS011;27625;50.422;7.944;2022-11-15T05:12:48;13.23;;;11.17;;
2031;SDS011;27625;50.422;7.944;2022-11-15T05:15:15;13.60;;;9.63;;
2031;SDS011;27625;50.422;7.944;2022-11-15T05:17:42;9.70;;;8.00;;
2031;SDS011;27625;50.422;7.944;2022-11-15T05:20:09;13.33;;;10.13;;
2031;SDS011;27625;50.422;7.944;2022-11-15T05:22:37;10.60;;;8.33;;
2031;SDS011;27625;50.422;7.944;2022-11-15T05:25:05;10.90;;;9.20;;
2031;SDS011;27625;50.422;7.944;2022-11-15T05:27:33;11.77;;;9.37;;
2031;SDS011;27625;50.422;7.944;2022-11-15T05:29:59;13.77;;;10.50;;
2031;SDS011;27625;50.422;7.944;2022-11-15T05:32:27;13.87;;;9.67;;
2031;SDS011;27625;50.422;7.944;2022-11-15T05:34:54;11.40;;;9.40;;
2031;SDS011;27625;50.422;7.944;2022-11-15T05:37:21;11.40;;;9.60;;
2031;SDS011;27625;50.422;7.944;2022-11-15T05:39:47;12.10;;;10.80;;
2031;SDS011;27625;50.422;7.944;2022-11-15T05:42:16;11.77;;;8.83;;
2031;SDS011;27625;50.422;7.944;2022-11-15T05:44:44;10.63;;;8.90;;
2031;SDS011;27625;50.422;7.944;2022-11-15T05:47:13;10.87;;;9.17;;
2031;SDS011;27625;50.422;7.944;2022-11-15T05:49:42;10.53;;;8.80;;
2031;SDS011;27625;50.422;7.944;2022-11-15T05:52:11;12.07;;;8.27;;
2031;SDS011;27625;50.422;7.944;2022-11-15T05:54:39;10.40;;;8.20;;
2031;SDS011;27625;50.422;7.944;2022-11-15T05:57:06;11.60;;;8.93;;
2031;SDS011;27625;50.422;7.944;2022-11-15T05:59:35;10.80;;;8.57;;
2031;SDS011;27625;50.422;7.944;2022-11-15T06:02:02;12.00;;;8.17;;
2031;SDS011;27625;50.422;7.944;2022-11-15T06:04:29;10.53;;;8.50;;
2031;SDS011;27625;50.422;7.944;2022-11-15T06:06:55;9.33;;;8.23;;
2031;SDS011;27625;50.422;7.944;2022-11-15T06:09:24;9.47;;;8.03;;
2031;SDS011;27625;50.422;7.944;2022-11-15T06:11:51;10.33;;;7.63;;
2031;SDS011;27625;50.422;7.944;2022-11-15T06:14:17;10.93;;;8.57;;
2031;SDS011;27625;50.422;7.944;2022-11-15T06:16:45;10.70;;;8.50;;
2031;SDS011;27625;50.422;7.944;2022-11-15T06:19:12;10.20;;;9.10;;
2031;SDS011;27625;50.422;7.944;2022-11-15T06:21:39;14.60;;;11.83;;
2031;SDS011;27625;50.422;7.944;2022-11-15T06:24:05;14.77;;;12.40;;
2031;SDS011;27625;50.422;7.944;2022-11-15T06:26:32;15.57;;;13.23;;
2031;SDS011;27625;50.422;7.944;2022-11-15T06:28:59;14.70;;;12.63;;
2031;SDS011;27625;50.422;7.944;2022-11-15T06:31:26;15.97;;;13.17;;
2031;SDS011;27625;50.422;7.944;2022-11-15T06:33:54;18.47;;;14.13;;
2031;SDS011;27625;50.422;7.944;2022-11-15T06:36:21;17.30;;;14.40;;
2031;SDS011;27625;50.422;7.944;2022-11-15T06:38:47;18.47;;;13.40;;
2031;SDS011;27625;50.422;7.944;2022-11-15T06:41:14;16.77;;;14.17;;
2031;SDS011;27625;50.422;7.944;2022-11-15T06:43:42;16.97;;;13.80;;
2031;SDS011;27625;50.422;7.944;2022-11-15T06:46:09;19.67;;;14.43;;
2031;SDS011;27625;50.422;7.944;2022-11-15T06:48:35;18.27;;;15.20;;
2031;SDS011;27625;50.422;7.944;2022-11-15T06:51:03;20.80;;;16.57;;
2031;SDS011;27625;50.422;7.944;2022-11-15T06:53:31;23.57;;;17.90;;
2031;SDS011;27625;50.422;7.944;2022-11-15T06:55:58;25.87;;;20.60;;
2031;SDS011;27625;50.422;7.944;2022-11-15T06:58:25;25.53;;;19.80;;
2031;SDS011;27625;50.422;7.944;2022-11-15T07:00:52;23.80;;;18.60;;
2031;SDS011;27625;50.422;7.944;2022-11-15T07:03:19;24.60;;;19.50;;
2031;SDS011;27625;50.422;7.944;2022-11-15T07:05:50;25.77;;;21.10;;
2031;SDS011;27625;50.422;7.944;2022-11-15T07:08:19;23.63;;;18.67;;
2031;SDS011;27625;50.422;7.944;2022-11-15T07:10:46;23.17;;;17.43;;
2031;SDS011;27625;50.422;7.944;2022-11-15T07:13:12;21.43;;;17.93;;
2031;SDS011;27625;50.422;7.944;2022-11-15T07:15:39;20.37;;;17.57;;
2031;SDS011;27625;50.422;7.944;2022-11-15T07:18:06;21.90;;;17.70;;
2031;SDS011;27625;50.422;7.944;2022-11-15T07:20:33;24.20;;;18.43;;
2031;SDS011;27625;50.422;7.944;2022-11-15T07:23:00;20.70;;;17.03;;
2031;SDS011;27625;50.422;7.944;2022-11-15T07:25:28;21.27;;;17.10;;
2031;SDS011;27625;50.422;7.944;2022-11-15T07:27:55;27.13;;;18.20;;
2031;SDS011;27625;50.422;7.944;2022-11-15T07:30:22;20.73;;;16.70;;
2031;SDS011;27625;50.422;7.944;2022-11-15T07:32:51;22.93;;;16.87;;
2031;SDS011;27625;50.422;7.944;2022-11-15T07:35:19;22.43;;;16.83;;
2031;SDS011;27625;50.422;7.944;2022-11-15T07:37:52;21.87;;;16.97;;
2031;SDS011;27625;50.422;7.944;2022-11-15T07:40:19;23.87;;;18.17;;
2031;SDS011;27625;50.422;7.944;2022-11-15T07:42:48;22.30;;;16.30;;
2031;SDS011;27625;50.422;7.944;2022-11-15T07:45:21;22.67;;;17.27;;
2031;SDS011;27625;50.422;7.944;2022-11-15T07:47:48;21.87;;;16.80;;
2031;SDS011;27625;50.422;7.944;2022-11-15T07:50:15;19.70;;;16.00;;
2031;SDS011;27625;50.422;7.944;2022-11-15T07:52:42;20.27;;;16.13;;
2031;SDS011;27625;50.422;7.944;2022-11-15T07:55:09;19.27;;;15.67;;
2031;SDS011;27625;50.422;7.944;2022-11-15T07:57:35;21.90;;;17.30;;
2031;SDS011;27625;50.422;7.944;2022-11-15T08:00:04;20.03;;;16.07;;
2031;SDS011;27625;50.422;7.944;2022-11-15T08:02:32;21.30;;;15.83;;
2031;SDS011;27625;50.422;7.944;2022-11-15T08:04:58;23.23;;;16.03;;
2031;SDS011;27625;50.422;7.944;2022-11-15T08:07:27;21.70;;;16.47;;
2031;SDS011;27625;50.422;7.944;2022-11-15T08:09:55;24.23;;;16.53;;
2031;SDS011;27625;50.422;7.944;2022-11-15T08:12:22;21.77;;;17.23;;
2031;SDS011;27625;50.422;7.944;2022-11-15T08:14:48;20.87;;;15.37;;
2031;SDS011;27625;50.422;7.944;2022-11-15T08:17:17;22.37;;;16.70;;
2031;SDS011;27625;50.422;7.944;2022-11-15T08:19:43;20.37;;;16.00;;
2031;SDS011;27625;50.422;7.944;2022-11-15T08:22:10;27.10;;;16.20;;
2031;SDS011;27625;50.422;7.944;2022-11-15T08:24:37;22.17;;;16.90;;
2031;SDS011;27625;50.422;7.944;2022-11-15T08:27:04;23.20;;;16.87;;
2031;SDS011;27625;50.422;7.944;2022-11-15T08:29:39;17.67;;;15.17;;
2031;SDS011;27625;50.422;7.944;2022-11-15T08:32:07;21.63;;;16.13;;
2031;SDS011;27625;50.422;7.944;2022-11-15T08:34:35;20.43;;;16.13;;
2031;SDS011;27625;50.422;7.944;2022-11-15T08:37:02;22.10;;;16.90;;
2031;SDS011;27625;50.422;7.944;2022-11-15T08:39:29;24.13;;;18.27;;
2031;SDS011;27625;50.422;7.944;2022-11-15T08:41:56;22.67;;;18.00;;
2031;SDS011;27625;50.422;7.944;2022-11-15T08:44:23;24.40;;;18.70;;
2031;SDS011;27625;50.422;7.944;2022-11-15T08:46:50;27.63;;;20.00;;
2031;SDS011;27625;50.422;7.944;2022-11-15T08:49:17;23.17;;;18.07;;
2031;SDS011;27625;50.422;7.944;2022-11-15T08:51:45;25.07;;;19.80;;
2031;SDS011;27625;50.422;7.944;2022-11-15T08:54:12;26.87;;;20.10;;
2031;SDS011;27625;50.422;7.944;2022-11-15T08:56:39;23.93;;;20.17;;
2031;SDS011;27625;50.422;7.944;2022-11-15T08:59:06;21.93;;;17.93;;
2031;SDS011;27625;50.422;7.944;2022-11-15T09:01:33;23.30;;;17.40;;
2031;SDS011;27625;50.422;7.944;2022-11-15T09:04:00;23.47;;;18.43;;
2031;SDS011;27625;50.422;7.944;2022-11-15T09:06:27;22.43;;;17.97;;
2031;SDS011;27625;50.422;7.944;2022-11-15T09:08:55;23.50;;;17.03;;
2031;SDS011;27625;50.422;7.944;2022-11-15T09:11:22;25.60;;;18.70;;
2031;SDS011;27625;50.422;7.944;2022-11-15T09:13:49;21.20;;;17.40;;
2031;SDS011;27625;50.422;7.944;2022-11-15T09:16:16;20.50;;;16.27;;
2031;SDS011;27625;50.422;7.944;2022-11-15T09:18:43;21.40;;;16.43;;
2031;SDS011;27625;50.422;7.944;2022-11-15T09:21:10;22.43;;;16.47;;
2031;SDS011;27625;50.422;7.944;2022-11-15T09:23:37;21.03;;;17.53;;
2031;SDS011;27625;50.422;7.944;2022-11-15T09:26:05;22.90;;;18.40;;
2031;SDS011;27625;50.422;7.944;2022-11-15T09:28:33;25.40;;;17.03;;
2031;SDS011;27625;50.422;7.944;2022-11-15T09:31:01;20.67;;;16.57;;
2031;SDS011;27625;50.422;7.944;2022-11-15T09:33:29;21.00;;;16.13;;
2031;SDS011;27625;50.422;7.944;2022-11-15T09:35:59;23.23;;;16.83;;
2031;SDS011;27625;50.422;7.944;2022-11-15T09:38:26;19.03;;;16.10;;
2031;SDS011;27625;50.422;7.944;2022-11-15T09:41:06;21.13;;;16.90;;
2031;SDS011;27625;50.422;7.944;2022-11-15T09:43:40;25.17;;;16.73;;
2031;SDS011;27625;50.422;7.944;2022-11-15T09:46:13;21.30;;;16.37;;
2031;SDS011;27625;50.422;7.944;2022-11-15T09:48:50;22.37;;;16.90;;
2031;SDS011;27625;50.422;7.944;2022-11-15T09:51:21;21.03;;;17.07;;
2031;SDS011;27625;50.422;7.944;2022-11-15T09:53:54;19.80;;;16.37;;
2031;SDS011;27625;50.422;7.944;2022-11-15T09:56:26;26.93;;;17.47;;
2031;SDS011;27625;50.422;7.944;2022-11-15T09:58:57;24.60;;;16.70;;
2031;SDS011;27625;50.422;7.944;2022-11-15T10:01:33;19.40;;;15.93;;
2031;SDS011;27625;50.422;7.944;2022-11-15T10:04:04;21.50;;;17.20;;
2031;SDS011;27625;50.422;7.944;2022-11-15T10:06:31;23.10;;;17.40;;
2031;SDS011;27625;50.422;7.944;2022-11-15T10:09:00;21.20;;;18.10;;
2031;SDS011;27625;50.422;7.944;2022-11-15T10:11:31;20.83;;;16.83;;
2031;SDS011;27625;50.422;7.944;2022-11-15T10:13:59;19.77;;;16.50;;
2031;SDS011;27625;50.422;7.944;2022-11-15T10:19:27;21.47;;;18.03;;
2031;SDS011;27625;50.422;7.944;2022-11-15T10:22:00;25.63;;;16.40;;
2031;SDS011;27625;50.422;7.944;2022-11-15T10:24:34;20.10;;;17.17;;
2031;SDS011;27625;50.422;7.944;2022-11-15T10:27:06;19.80;;;17.30;;
2031;SDS011;27625;50.422;7.944;2022-11-15T10:29:35;21.90;;;16.37;;
2031;SDS011;27625;50.422;7.944;2022-11-15T10:32:02;19.00;;;15.87;;
2031;SDS011;27625;50.422;7.944;2022-11-15T10:34:35;22.10;;;16.13;;
2031;SDS011;27625;50.422;7.944;2022-11-15T10:37:02;19.97;;;16.30;;
2031;SDS011;27625;50.422;7.944;2022-11-15T10:39:29;17.50;;;15.53;;
2031;SDS011;27625;50.422;7.944;2022-11-15T10:41:56;17.93;;;14.47;;
2031;SDS011;27625;50.422;7.944;2022-11-15T10:44:25;18.53;;;15.00;;
2031;SDS011;27625;50.422;7.944;2022-11-15T10:49:53;20.90;;;14.37;;
2031;SDS011;27625;50.422;7.944;2022-11-15T10:52:24;18.07;;;14.57;;
2031;SDS011;27625;50.422;7.944;2022-11-15T10:54:53;19.30;;;15.20;;
2031;SDS011;27625;50.422;7.944;2022-11-15T10:57:22;19.93;;;14.87;;
2031;SDS011;27625;50.422;7.944;2022-11-15T10:59:51;18.17;;;14.13;;
2031;SDS011;27625;50.422;7.944;2022-11-15T11:02:30;15.80;;;14.10;;
2031;SDS011;27625;50.422;7.944;2022-11-15T11:04:59;16.83;;;14.13;;
2031;SDS011;27625;50.422;7.944;2022-11-15T11:07:27;18.10;;;12.30;;
2031;SDS011;27625;50.422;7.944;2022-11-15T11:09:59;17.57;;;12.47;;
2031;SDS011;27625;50.422;7.944;2022-11-15T11:12:27;14.67;;;13.13;;
2031;SDS011;27625;50.422;7.944;2022-11-15T11:14:58;14.07;;;12.60;;
2031;SDS011;27625;50.422;7.944;2022-11-15T11:17:29;13.83;;;12.30;;
2031;SDS011;27625;50.422;7.944;2022-11-15T11:20:02;17.30;;;13.70;;
2031;SDS011;27625;50.422;7.944;2022-11-15T11:22:34;13.90;;;11.80;;
2031;SDS011;27625;50.422;7.944;2022-11-15T11:25:09;14.50;;;11.60;;
2031;SDS011;27625;50.422;7.944;2022-11-15T11:27:43;13.10;;;10.07;;
2031;SDS011;27625;50.422;7.944;2022-11-15T11:30:18;13.40;;;9.97;;
2031;SDS011;27625;50.422;7.944;2022-11-15T11:32:52;11.80;;;9.63;;
2031;SDS011;27625;50.422;7.944;2022-11-15T11:35:24;11.03;;;9.80;;
2031;SDS011;27625;50.422;7.944;2022-11-15T11:37:59;12.00;;;9.53;;
2031;SDS011;27625;50.422;7.944;2022-11-15T11:40:43;11.97;;;9.03;;
2031;SDS011;27625;50.422;7.944;2022-11-15T11:43:12;10.90;;;8.50;;
2031;SDS011;27625;50.422;7.944;2022-11-15T11:45:47;11.10;;;9.23;;
2031;SDS011;27625;50.422;7.944;2022-11-15T11:48:23;9.83;;;8.47;;
2031;SDS011;27625;50.422;7.944;2022-11-15T11:51:03;10.67;;;8.90;;
2031;SDS011;27625;50.422;7.944;2022-11-15T11:53:35;12.43;;;9.03;;
2031;SDS011;27625;50.422;7.944;2022-11-15T11:56:14;11.43;;;8.33;;
2031;SDS011;27625;50.422;7.944;2022-11-15T11:58:45;10.40;;;8.27;;
2031;SDS011;27625;50.422;7.944;2022-11-15T12:01:14;7.67;;;6.97;;
2031;SDS011;27625;50.422;7.944;2022-11-15T12:03:44;8.90;;;7.80;;
2031;SDS011;27625;50.422;7.944;2022-11-15T12:06:19;7.27;;;6.30;;
2031;SDS011;27625;50.422;7.944;2022-11-15T12:08:50;9.83;;;6.43;;
2031;SDS011;27625;50.422;7.944;2022-11-15T12:11:20;10.97;;;7.40;;
2031;SDS011;27625;50.422;7.944;2022-11-15T12:13:50;8.80;;;6.50;;
2031;SDS011;27625;50.422;7.944;2022-11-15T12:16:21;7.93;;;6.10;;
2031;SDS011;27625;50.422;7.944;2022-11-15T12:18:51;6.93;;;6.00;;
2031;SDS011;27625;50.422;7.944;2022-11-15T12:21:21;7.97;;;6.13;;
2031;SDS011;27625;50.422;7.944;2022-11-15T12:23:52;9.17;;;6.23;;
2031;SDS011;27625;50.422;7.944;2022-11-15T12:26:22;7.90;;;6.37;;
2031;SDS011;27625;50.422;7.944;2022-11-15T12:28:53;19.07;;;6.50;;
2031;SDS011;27625;50.422;7.944;2022-11-15T12:31:24;9.10;;;6.20;;
2031;SDS011;27625;50.422;7.944;2022-11-15T12:33:55;7.73;;;5.60;;
2031;SDS011;27625;50.422;7.944;2022-11-15T12:36:36;5.73;;;5.20;;
2031;SDS011;27625;50.422;7.944;2022-11-15T12:39:05;7.53;;;5.80;;
2031;SDS011;27625;50.422;7.944;2022-11-15T12:41:32;9.47;;;6.10;;
2031;SDS011;27625;50.422;7.944;2022-11-15T12:44:00;5.70;;;5.10;;
2031;SDS011;27625;50.422;7.944;2022-11-15T12:49:44;5.80;;;4.80;;
2031;SDS011;27625;50.422;7.944;2022-11-15T12:52:15;7.00;;;5.47;;
2031;SDS011;27625;50.422;7.944;2022-11-15T12:57:55;7.37;;;5.17;;
2031;SDS011;27625;50.422;7.944;2022-11-15T13:00:55;8.10;;;4.33;;
2031;SDS011;27625;50.422;7.944;2022-11-15T13:03:24;6.53;;;3.30;;
2031;SDS011;27625;50.422;7.944;2022-11-15T13:05:57;4.30;;;3.17;;
2031;SDS011;27625;50.422;7.944;2022-11-15T13:08:35;5.50;;;3.10;;
2031;SDS011;27625;50.422;7.944;2022-11-15T13:17:24;4.87;;;3.90;;
2031;SDS011;27625;50.422;7.944;2022-11-15T13:19:55;4.90;;;3.80;;
2031;SDS011;27625;50.422;7.944;2022-11-15T13:22:26;5.70;;;3.70;;
2031;SDS011;27625;50.422;7.944;2022-11-15T13:25:18;7.70;;;4.13;;
2031;SDS011;27625;50.422;7.944;2022-11-15T13:27:48;5.90;;;3.67;;
2031;SDS011;27625;50.422;7.944;2022-11-15T13:30:18;10.50;;;4.30;;
2031;SDS011;27625;50.422;7.944;2022-11-15T13:32:47;6.50;;;4.10;;
2031;SDS011;27625;50.422;7.944;2022-11-15T13:35:20;5.30;;;4.10;;
2031;SDS011;27625;50.422;7.944;2022-11-15T13:37:48;4.87;;;3.67;;
2031;SDS011;27625;50.422;7.944;2022-11-15T13:40:18;5.80;;;4.17;;
2031;SDS011;27625;50.422;7.944;2022-11-15T13:42:47;4.80;;;4.03;;
2031;SDS011;27625;50.422;7.944;2022-11-15T13:45:15;6.73;;;4.00;;
2031;SDS011;27625;50.422;7.944;2022-11-15T13:47:44;4.33;;;3.53;;
2031;SDS011;27625;50.422;7.944;2022-11-15T13:50:10;5.50;;;4.70;;
2031;SDS011;27625;50.422;7.944;2022-11-15T13:52:39;7.43;;;4.90;;
2031;SDS011;27625;50.422;7.944;2022-11-15T13:55:09;6.17;;;5.57;;
2031;SDS011;27625;50.422;7.944;2022-11-15T13:57:39;9.70;;;5.80;;
2031;SDS011;27625;50.422;7.944;2022-11-15T14:00:23;8.23;;;5.23;;
2031;SDS011;27625;50.422;7.944;2022-11-15T14:02:52;6.90;;;5.77;;
2031;SDS011;27625;50.422;7.944;2022-11-15T14:05:20;7.80;;;6.00;;
2031;SDS011;27625;50.422;7.944;2022-11-15T14:07:53;7.00;;;6.03;;
2031;SDS011;27625;50.422;7.944;2022-11-15T14:10:25;7.77;;;5.70;;
2031;SDS011;27625;50.422;7.944;2022-11-15T14:12:55;8.20;;;6.77;;
2031;SDS011;27625;50.422;7.944;2022-11-15T14:15:27;7.63;;;6.83;;
2031;SDS011;27625;50.422;7.944;2022-11-15T14:17:55;7.93;;;7.10;;
2031;SDS011;27625;50.422;7.944;2022-11-15T14:20:26;7.27;;;6.50;;
2031;SDS011;27625;50.422;7.944;2022-11-15T14:22:57;7.73;;;6.67;;
2031;SDS011;27625;50.422;7.944;2022-11-15T14:25:26;7.23;;;6.47;;
2031;SDS011;27625;50.422;7.944;2022-11-15T14:28:13;8.80;;;7.00;;
2031;SDS011;27625;50.422;7.944;2022-11-15T14:30:43;6.83;;;6.13;;
2031;SDS011;27625;50.422;7.944;2022-11-15T14:33:19;8.00;;;6.57;;
2031;SDS011;27625;50.422;7.944;2022-11-15T14:35:47;8.37;;;6.53;;
2031;SDS011;27625;50.422;7.944;2022-11-15T14:38:15;7.90;;;6.47;;
2031;SDS011;27625;50.422;7.944;2022-11-15T14:40:42;9.60;;;7.17;;
2031;SDS011;27625;50.422;7.944;2022-11-15T14:43:09;9.80;;;6.23;;
2031;SDS011;27625;50.422;7.944;2022-11-15T14:45:37;8.70;;;6.50;;
2031;SDS011;27625;50.422;7.944;2022-11-15T14:48:04;10.00;;;7.23;;
2031;SDS011;27625;50.422;7.944;2022-11-15T14:50:32;7.93;;;6.13;;
2031;SDS011;27625;50.422;7.944;2022-11-15T14:52:59;8.80;;;6.87;;
2031;SDS011;27625;50.422;7.944;2022-11-15T14:55:28;9.50;;;7.87;;
2031;SDS011;27625;50.422;7.944;2022-11-15T14:57:57;10.43;;;7.33;;
2031;SDS011;27625;50.422;7.944;2022-11-15T15:00:24;8.53;;;7.70;;
2031;SDS011;27625;50.422;7.944;2022-11-15T15:02:52;8.70;;;7.10;;
2031;SDS011;27625;50.422;7.944;2022-11-15T15:05:29;9.80;;;6.70;;
2031;SDS011;27625;50.422;7.944;2022-11-15T15:07:57;11.40;;;7.70;;
2031;SDS011;27625;50.422;7.944;2022-11-15T15:10:24;10.50;;;7.40;;
2031;SDS011;27625;50.422;7.944;2022-11-15T15:12:53;8.90;;;8.00;;
2031;SDS011;27625;50.422;7.944;2022-11-15T15:15:22;9.97;;;8.60;;
2031;SDS011;27625;50.422;7.944;2022-11-15T15:17:51;11.73;;;9.10;;